Obion, Tennessee
Current Conditions -  °F | °C
As of 8:15 AM on Thursday 18 Dec 2014 (Local Time) from KUCY Reporting Station
Overcast Overcast  
Wind Chill: 32°   Ceiling: 3700
Heat Index: 32°   Visibility: 10mi
Dew Point: 32°   Wind: 3mph
Humidity: 100%   Direction: 70°ENE
Pressure: 30.25"   Gusts: NA
Location:  36.26°N, 89.19°W
Report Text: KUCY 181415Z AUTO 07003KT 10SM FEW009 BKN037 OVC050 00/00 A3025 RMK
Loading
Personal Weather Stations






























Interactive Weather Map New forecast layout! Learn more

10-Day Weather Forecast

Advertisements
Track Severe Weather on mobile